Data for 07/15/2007

Time Sea-Level Adjusted Pressure Absolute Pressure Temperature Relative Humidity Dew Point   
(mb) (inHg) (mb) (inHg) (C) (F) (%) (C) (F)
00:05 1021 30.15 850 25.1 20.4 68.7 43 7.7 45.8
00:10 1021 30.15 850 25.1 20.3 68.6 43 7.6 45.7
00:15 1020 30.12 850 25.1 20.3 68.5 43 7.6 45.7
00:20 1020 30.12 850 25.1 20 68.1 44 7.7 45.9
00:25 1021 30.15 850 25.1 19.7 67.5 46 7.9 46.2
00:30 1021 30.15 850 25.1 19.5 67 46 7.7 45.8
00:35 1021 30.15 850 25.1 19.4 66.9 46 7.5 45.4
00:40 1021 30.15 850 25.1 19.5 67.1 45 7.4 45.3
00:45 1021 30.15 850 25.1 19.2 66.5 45 7.2 45
00:50 1020 30.12 850 25.1 18.9 66 46 7.2 44.9
00:55 1021 30.15 850 25.1 18.8 65.8 46 6.9 44.4
01:00 1021 30.15 850 25.1 18.9 66 45 6.8 44.3
01:05 1021 30.15 850 25.1 19.1 66.3 44 6.7 44
01:10 1021 30.15 850 25.1 19.2 66.6 44 6.9 44.3
01:15 1021 30.15 850 25.1 19.3 66.7 43 6.7 44.1
01:20 1021 30.15 850 25.1 19.5 67.1 43 6.6 43.9
01:25 1021 30.15 850 25.1 19.4 66.9 44 7 44.6
01:30 1021 30.15 850 25.1 19.2 66.5 44 6.8 44.2
01:35 1021 30.15 850 25.1 19 66.2 44 6.5 43.8
01:40 1021 30.15 850 25.1 19 66.3 44 6.6 43.8
01:45 1021 30.15 850 25.1 18.8 65.9 44 6.5 43.7
01:50 1021 30.15 850 25.1 19 66.2 42 5.9 42.6
01:55 1021 30.15 850 25.1 19.3 66.8 42 6.2 43.1
02:00 1020 30.12 850 25.1 19.4 66.8 42 6.2 43.1
02:05 1020 30.12 850 25.1 19.3 66.8 43 6.6 43.8
02:10 1020 30.12 850 25.1 19.1 66.3 42 5.9 42.6
02:15 1020 30.12 850 25.1 19.5 67 41 5.8 42.5
02:20 1020 30.12 850 25.1 19.6 67.2 40 5.8 42.5
02:25 1021 30.15 850 25.1 19.6 67.3 40 5.9 42.6
02:30 1020 30.12 850 25.1 19.5 67 40 5.6 42.1
02:35 1020 30.12 850 25.1 19.4 66.8 40 5.6 42.1
02:40 1020 30.12 850 25.1 19.4 67 41 6 42.8
02:45 1020 30.12 850 25.1 18.9 66.1 43 6.3 43.3
02:50 1020 30.12 850 25.1 18.6 65.5 40 4.8 40.7
02:55 1020 30.12 849 25.07 18.8 65.9 40 5.1 41.3
03:00 1020 30.12 850 25.1 18.8 65.9 40 5.2 41.4
03:05 1020 30.12 850 25.1 18.5 65.4 41 5.2 41.4
03:10 1020 30.12 850 25.1 18.9 66.1 41 5.6 42
03:15 1020 30.12 850 25.1 19.2 66.5 41 5.9 42.6
03:20 1020 30.12 850 25.1 19.2 66.6 41 5.8 42.4
03:25 1020 30.12 850 25.1 19.1 66.4 41 5.8 42.5
03:30 1020 30.12 850 25.1 18.5 65.3 45 6.4 43.4
03:35 1020 30.12 849 25.07 17.7 63.8 49 6.9 44.5
03:40 1020 30.12 849 25.07 17.5 63.4 47 6.1 43
03:45 1020 30.12 849 25.07 17.4 63.3 46 5.9 42.6
03:50 1020 30.12 849 25.07 17.4 63.4 46 5.8 42.4
03:55 1020 30.12 849 25.07 17.5 63.5 46 6 42.8
04:00 1020 30.12 849 25.07 17.3 63.2 47 6.1 42.9
04:05 1020 30.12 849 25.07 17.1 62.9 50 6.6 43.9
04:10 1020 30.12 849 25.07 16.9 62.5 49 6.2 43.2
04:15 1020 30.12 849 25.07 16.8 62.2 48 5.9 42.7
04:20 1020 30.12 849 25.07 17.2 63 47 5.8 42.5
04:25 1020 30.12 849 25.07 17.4 63.3 49 6.8 44.2
04:30 1020 30.12 849 25.07 16.6 61.9 48 5.7 42.3
04:35 1020 30.12 849 25.07 16.6 61.9 47 5.4 41.6
04:40 1020 30.12 849 25.07 16.9 62.4 43 4.3 39.7
04:45 1020 30.12 849 25.07 17.6 63.6 44 5.5 41.8
04:50 1020 30.12 849 25.07 17.3 63.1 44 5 40.9
04:55 1020 30.12 849 25.07 17.7 63.9 40 4.1 39.3
05:00 1020 30.12 849 25.07 17.9 64.3 45 5.8 42.5
05:05 1020 30.12 849 25.07 17.4 63.3 47 6 42.7
05:10 1020 30.12 849 25.07 17.2 63 47 6 42.7
05:15 1020 30.12 849 25.07 17.2 62.9 47 6 42.8
05:20 1020 30.12 849 25.07 17.1 62.9 47 5.7 42.3
05:25 1020 30.12 849 25.07 16.8 62.3 49 6 42.9
05:30 1020 30.12 849 25.07 16.9 62.3 49 6.1 42.9
05:35 1020 30.12 849 25.07 16.7 62.1 50 6.3 43.4
05:40 1020 30.12 849 25.07 16.3 61.3 57 7.9 46.3
05:45 1020 30.12 849 25.07 15.9 60.7 52 6.2 43.2
05:50 1020 30.12 849 25.07 16 60.8 51 5.9 42.6
05:55 1020 30.12 849 25.07 16.5 61.8 48 5.4 41.8
06:00 1020 30.12 849 25.07 17.1 62.7 46 5.4 41.7
06:05 1020 30.12 849 25.07 17.4 63.4 45 5.4 41.7
06:10 1020 30.12 849 25.07 17.7 63.8 43 5.2 41.4
06:15 1020 30.12 849 25.07 18 64.4 42 5 41
06:20 1020 30.12 849 25.07 18 64.4 45 5.9 42.6
06:25 1020 30.12 850 25.1 16.9 62.4 48 6 42.7
06:30 1020 30.12 850 25.1 16.6 61.8 50 6.2 43.1
06:35 1020 30.12 850 25.1 16.4 61.5 48 5.4 41.8
06:40 1020 30.12 850 25.1 16.7 62 49 5.9 42.6
06:45 1020 30.12 850 25.1 16.5 61.8 50 6.1 42.9
06:50 1020 30.12 850 25.1 16.3 61.3 49 5.7 42.2
06:55 1020 30.12 850 25.1 16.4 61.6 49 5.7 42.3
07:00 1021 30.15 850 25.1 16.8 62.2 46 5.2 41.3
07:05 1021 30.15 850 25.1 17 62.5 46 5.3 41.6
07:10 1021 30.15 850 25.1 17.2 62.9 51 6.9 44.5
07:15 1021 30.15 850 25.1 17.4 63.3 46 5.8 42.5
07:20 1021 30.15 850 25.1 17.4 63.4 46 6 42.7
07:25 1021 30.15 850 25.1 17.3 63.2 49 6.5 43.8
07:30 1021 30.15 850 25.1 17.3 63.2 49 6.6 43.9
07:35 1021 30.15 850 25.1 17.6 63.6 48 6.5 43.8
07:40 1021 30.15 850 25.1 18.1 64.6 46 6.5 43.6
07:45 1021 30.15 850 25.1 18.5 65.3 46 6.9 44.5
07:50 1021 30.15 850 25.1 18.8 65.9 47 7.3 45.1
07:55 1021 30.15 850 25.1 18.8 65.8 52 9 48.1
08:00 1021 30.15 850 25.1 19.1 66.4 51 8.8 47.8
08:05 1021 30.15 850 25.1 19.2 66.5 48 8.1 46.6
08:10 1021 30.15 850 25.1 19.2 66.6 47 7.6 45.7
08:15 1021 30.15 850 25.1 19.4 66.9 48 8.1 46.6
08:20 1021 30.15 850 25.1 19.5 67.2 43 6.6 44
08:25 1021 30.15 850 25.1 20 68.1 48 8.8 47.8
08:30 1021 30.15 850 25.1 20.5 69 43 7.7 45.8
08:35 1021 30.15 850 25.1 21 69.7 43 8.2 46.7
08:40 1021 30.15 850 25.1 21.1 70 45 8.9 47.9
08:45 1021 30.15 850 25.1 21.3 70.3 46 9.3 48.7
08:50 1021 30.15 850 25.1 21.9 71.4 41 8.3 46.9
08:55 1021 30.15 850 25.1 22.1 71.9 42 8.7 47.7
09:00 1021 30.15 850 25.1 22.4 72.3 39 7.9 46.2
09:05 1021 30.15 850 25.1 22.8 73.1 35 6.8 44.2
09:10 1021 30.15 850 25.1 23.6 74.5 35 7.5 45.5
09:15 1021 30.15 850 25.1 24.4 75.8 32 6.8 44.3
09:20 1021 30.15 850 25.1 25 76.9 32 7.5 45.5
09:25 1021 30.15 850 25.1 25.1 77.1 32 7.6 45.6
09:30 1021 30.15 850 25.1 24.5 76.2 33 7.4 45.3
09:35 1021 30.15 850 25.1 24.7 76.5 33 7.5 45.4
09:40 1021 30.15 850 25.1 25.3 77.5 33 8.2 46.7
09:45 1021 30.15 850 25.1 25.4 77.7 31 7.4 45.4
09:50 1021 30.15 850 25.1 25.9 78.6 30 7.1 44.7
09:55 1021 30.15 850 25.1 26 78.9 30 7.2 45
10:00 1020 30.12 850 25.1 26.2 79.2 29 7.3 45.1
10:05 1020 30.12 850 25.1 26.2 79.2 30 7.4 45.3
10:10 1020 30.12 850 25.1 26.3 79.3 29 7 44.6
10:15 1020 30.12 850 25.1 26.7 80 29 7.6 45.7
10:20 1020 30.12 850 25.1 26.7 80.1 30 8.1 46.6
10:25 1020 30.12 850 25.1 27 80.5 28 7.3 45.1
10:30 1020 30.12 850 25.1 27.2 80.9 29 7.9 46.1
10:35 1020 30.12 849 25.07 27.6 81.7 27 7.4 45.4
10:40 1020 30.12 849 25.07 27.2 81 28 7.6 45.7
10:45 1020 30.12 849 25.07 27.4 81.3 28 7.8 46
10:50 1020 30.12 849 25.07 27.9 82.2 28 7.9 46.2
10:55 1020 30.12 849 25.07 28 82.4 29 8.6 47.5
11:00 1020 30.12 849 25.07 27.9 82.2 30 8.9 48
11:05 1020 30.12 849 25.07 28.1 82.6 29 8.8 47.9
11:10 1020 30.12 849 25.07 28 82.4 29 8.8 47.8
11:15 1020 30.12 849 25.07 27.9 82.3 29 8.4 47
11:20 1020 30.12 849 25.07 27.6 81.6 29 8.3 46.9
11:25 1020 30.12 849 25.07 28.1 82.5 29 8.6 47.5
11:30 1020 30.12 849 25.07 27.7 81.8 31 9.1 48.4
11:35 1020 30.12 849 25.07 27.6 81.7 31 9.3 48.7
11:40 1020 30.12 849 25.07 28.6 83.6 29 9.1 48.4
11:45 1020 30.12 849 25.07 28.9 84.1 29 9.2 48.6
11:50 1020 30.12 849 25.07 28.1 82.5 30 9 48.2
11:55 1020 30.12 849 25.07 27.8 82.1 29 8.6 47.5
12:00 1020 30.12 849 25.07 29 84.3 28 9.1 48.3
12:05 1020 30.12 849 25.07 29.4 84.9 29 9.9 49.7
12:10 1020 30.12 849 25.07 28.7 83.7 30 9.5 49.2
12:15 1020 30.12 849 25.07 28.9 84 27 8.5 47.3
12:20 1020 30.12 849 25.07 29.1 84.5 28 9.2 48.5
12:25 1020 30.12 849 25.07 29.4 84.9 26 8.1 46.6
12:30 1020 30.12 849 25.07 29.9 85.8 26 8.8 47.9
12:35 1020 30.12 849 25.07 30.2 86.4 27 9.5 49
12:40 1019 30.09 849 25.07 30.6 87.1 25 8.6 47.6
12:45 1019 30.09 849 25.07 31.3 88.4 25 9.5 49.1
12:50 1019 30.09 849 25.07 30.9 87.6 25 8.9 48
12:55 1019 30.09 849 25.07 30.9 87.6 24 8.4 47.1
13:00 1019 30.09 848 25.04 31.1 88 24 8.3 47
13:05 1019 30.09 848 25.04 31.5 88.7 24 9 48.1
13:10 1019 30.09 848 25.04 31 87.8 23 8.1 46.6
13:15 1019 30.09 848 25.04 31.5 88.7 24 9 48.3
13:20 1019 30.09 848 25.04 31.9 89.5 21 7.2 45
13:25 1019 30.09 848 25.04 32.1 89.8 21 7.5 45.6
13:30 1019 30.09 848 25.04 32.8 91.1 19 6.9 44.5
13:35 1019 30.09 848 25.04 33.5 92.3 20 7.7 45.9
13:40 1019 30.09 848 25.04 33.6 92.6 19 7.1 44.8
13:45 1019 30.09 848 25.04 33.4 92.1 19 6.9 44.4
13:50 1019 30.09 848 25.04 32.9 91.2 20 7.1 44.8
13:55 1019 30.09 848 25.04 32.8 91.1 18 6.1 43
14:00 1019 30.09 848 25.04 33.6 92.5 18 6.4 43.5
14:05 1019 30.09 848 25.04 34.2 93.6 16 5.4 41.7
14:10 1018 30.06 848 25.04 34.6 94.3 16 5.6 42.1
14:15 1018 30.06 848 25.04 34.1 93.5 16 5 41
14:20 1018 30.06 848 25.04 33.9 93 16 4.6 40.3
14:25 1018 30.06 847 25.01 33.8 92.8 16 4.5 40
14:30 1018 30.06 847 25.01 34.1 93.4 15 4.2 39.6
14:35 1018 30.06 847 25.01 34.9 94.8 14 4 39.2
14:40 1018 30.06 847 25.01 35.4 95.7 13 3.6 38.5
14:45 1018 30.06 847 25.01 36 96.7 13 3.7 38.6
14:50 1018 30.06 847 25.01 35.5 95.9 13 3.8 38.9
14:55 1018 30.06 847 25.01 34.7 94.5 13 2.5 36.5
15:00 1018 30.06 847 25.01 34.9 94.8 13 2.8 37
15:05 1018 30.06 847 25.01 34.5 94.1 13 2.2 35.9
15:10 1018 30.06 847 25.01 35.7 96.2 13 2.9 37.3
15:15 1018 30.06 847 25.01 36.1 96.9 12 2.9 37.3
15:20 1018 30.06 847 25.01 35.7 96.3 13 3.6 38.4
15:25 1017 30.03 847 25.01 35.1 95.2 13 2.7 36.9
15:30 1017 30.03 847 25.01 35.2 95.4 13 2.7 36.9
15:35 1017 30.03 847 25.01 35.9 96.7 10 0.4 32.8
15:40 1017 30.03 846 24.98 35.8 96.5 12 2.1 35.8
15:45 1017 30.03 846 24.98 36.1 96.9 10 0.4 32.7
15:50 1017 30.03 846 24.98 36.8 98.2 10 1.3 34.3
15:55 1017 30.03 846 24.98 36.7 98.1 11 2.2 35.9
16:00 1017 30.03 846 24.98 35.5 95.8 12 2.5 36.4
16:05 1017 30.03 846 24.98 35.9 96.5 11 1 33.7
16:10 1017 30.03 846 24.98 36.4 97.6 11 1.6 34.9
16:15 1017 30.03 846 24.98 35.8 96.4 11 1.1 34
16:20 1017 30.03 846 24.98 35.3 95.6 11 1.2 34.1
16:25 1017 30.03 846 24.98 36.1 96.9 11 1.5 34.6
16:30 1017 30.03 846 24.98 36.1 97 11 1.3 34.4
16:35 1017 30.03 846 24.98 35.6 96.1 11 1.4 34.5
16:40 1017 30.03 846 24.98 35.8 96.4 11 1.1 34
16:45 1017 30.03 846 24.98 35.6 96.1 11 1.2 34.1
16:50 1017 30.03 846 24.98 35.2 95.3 12 2 35.6
16:55 1017 30.03 846 24.98 35.5 95.9 11 1.2 34.2
17:00 1016 30 846 24.98 34.8 94.7 12 1.5 34.6
17:05 1016 30 846 24.98 34.6 94.3 12 1.7 35.1
17:10 1016 30 846 24.98 34.3 93.8 13 1.9 35.5
17:15 1016 30 846 24.98 33.9 93.1 12 0.9 33.7
17:20 1016 30 846 24.98 33.8 92.9 12 1 33.8
17:25 1016 30 846 24.98 33.8 92.9 12 1.2 34.1
17:30 1017 30.03 846 24.98 33.7 92.7 14 3 37.3
17:35 1017 30.03 846 24.98 33 91.4 17 5.4 41.7
17:40 1018 30.06 847 25.01 31.7 89 20 6.4 43.5
17:45 1018 30.06 847 25.01 29.3 84.7 24 6.6 43.9
17:50 1018 30.06 847 25.01 27.7 81.9 29 8.2 46.8
17:55 1019 30.09 848 25.04 25.6 78 44 12.5 54.5
18:00 1019 30.09 848 25.04 23.4 74.1 47 11.6 53
18:05 1019 30.09 848 25.04 22.7 72.9 48 11.3 52.4
18:10 1019 30.09 849 25.07 23.4 74.1 42 10 50
18:15 1020 30.12 849 25.07 23.8 74.8 39 9.2 48.6
18:20 1020 30.12 849 25.07 24.2 75.6 33 7.4 45.3
18:25 1020 30.12 849 25.07 26.2 79.2 25 5.2 41.3
18:30 1020 30.12 849 25.07 27.4 81.2 35 11 51.8
18:35 1020 30.12 849 25.07 24.5 76.2 51 14 57.3
18:40 1020 30.12 849 25.07 22.8 73 54 13.2 55.8
18:45 1020 30.12 849 25.07 22.8 73.1 44 10.1 50.2
18:50 1020 30.12 849 25.07 23.7 74.7 49 12.5 54.6
18:55 1020 30.12 849 25.07 24.3 75.7 39 9.7 49.5
19:00 1020 30.12 849 25.07 24.4 76 40 10.3 50.5
19:05 1020 30.12 849 25.07 24.3 75.7 37 8.8 47.8
19:10 1019 30.09 849 25.07 24.8 76.7 33 7.7 45.9
19:15 1020 30.12 849 25.07 25 76.9 35 8.6 47.5
19:20 1020 30.12 849 25.07 24.4 75.9 40 10 50.1
19:25 1019 30.09 849 25.07 24.1 75.3 42 10.7 51.2
19:30 1019 30.09 849 25.07 23.7 74.6 43 10.6 51.2
19:35 1019 30.09 849 25.07 23.2 73.8 46 11.1 52
19:40 1019 30.09 848 25.04 22.9 73.3 48 11.5 52.6
19:45 1019 30.09 848 25.04 22.6 72.7 48 11.2 52.2
19:50 1019 30.09 848 25.04 22.9 73.2 43 9.8 49.6
19:55 1019 30.09 848 25.04 22.9 73.2 50 12.1 53.9
20:00 1019 30.09 848 25.04 22.4 72.2 47 10.8 51.5
20:05 1019 30.09 848 25.04 22.4 72.3 51 11.8 53.3
20:10 1019 30.09 848 25.04 22.3 72.2 48 10.8 51.5
20:15 1019 30.09 848 25.04 22.4 72.3 48 11.2 52.1
20:20 1019 30.09 848 25.04 22.4 72.3 48 11.1 52
20:25 1019 30.09 848 25.04 22.5 72.4 46 10.5 50.9
20:30 1019 30.09 848 25.04 22.7 72.8 44 10.1 50.2
20:35 1019 30.09 848 25.04 22.8 73.1 44 10.2 50.4
20:40 1019 30.09 848 25.04 22.7 72.8 46 10.5 51
20:45 1019 30.09 848 25.04 22.7 72.8 43 9.6 49.3
20:50 1019 30.09 848 25.04 22.8 73 43 9.7 49.5
20:55 1019 30.09 848 25.04 22.7 72.8 43 9.7 49.4
21:00 1019 30.09 848 25.04 22.6 72.7 43 9.7 49.5
21:05 1019 30.09 848 25.04 22.6 72.7 42 9.3 48.7
21:10 1019 30.09 848 25.04 22.7 72.8 42 9.3 48.7
21:15 1019 30.09 848 25.04 22.6 72.7 41 8.8 47.9
21:20 1019 30.09 848 25.04 22.8 73 40 8.5 47.3
21:25 1019 30.09 848 25.04 22.9 73.1 39 8.3 46.9
21:30 1019 30.09 848 25.04 22.8 73.1 40 8.6 47.5
21:35 1019 30.09 848 25.04 22.8 73 39 8.2 46.8
21:40 1019 30.09 848 25.04 22.8 73 39 8.3 46.9
21:45 1019 30.09 848 25.04 22.7 72.8 40 8.4 47.2
21:50 1019 30.09 848 25.04 22.5 72.5 39 8.1 46.5
21:55 1019 30.09 849 25.07 22.8 73 38 7.8 46
22:00 1020 30.12 849 25.07 23.2 73.8 39 8.8 47.8
22:05 1020 30.12 849 25.07 23.7 74.6 36 7.8 46.1
22:10 1020 30.12 849 25.07 23.8 74.9 35 7.9 46.1
22:15 1020 30.12 849 25.07 23.2 73.8 38 8.2 46.8
22:20 1020 30.12 849 25.07 22.9 73.2 39 8.3 46.9
22:25 1020 30.12 849 25.07 22.7 72.9 38 7.8 46
22:30 1020 30.12 849 25.07 22.7 72.9 39 8.1 46.6
22:35 1020 30.12 849 25.07 22.7 72.9 40 8.5 47.3
22:40 1020 30.12 849 25.07 22.8 73 36 7.1 44.7
22:45 1019 30.09 849 25.07 23.4 74.2 35 7.4 45.3
22:50 1019 30.09 848 25.04 23 73.3 41 9 48.3
22:55 1019 30.09 848 25.04 22.3 72.2 42 9 48.3
23:00 1019 30.09 848 25.04 22.1 71.8 42 8.7 47.6
23:05 1019 30.09 848 25.04 22.1 71.8 41 8.3 46.9
23:10 1019 30.09 848 25.04 22.1 71.7 43 9.2 48.5
23:15 1019 30.09 848 25.04 21.8 71.3 42 8.5 47.2
23:20 1019 30.09 848 25.04 22 71.6 41 8.3 46.9
23:25 1019 30.09 848 25.04 22 71.5 42 8.6 47.4
23:30 1019 30.09 848 25.04 21.8 71.2 42 8.6 47.4
23:35 1019 30.09 848 25.04 21.6 70.8 43 8.5 47.4
23:40 1019 30.09 848 25.04 21.6 70.8 43 8.5 47.4
23:45 1019 30.09 848 25.04 21.4 70.6 43 8.6 47.5
23:50 1019 30.09 848 25.04 21.4 70.5 43 8.4 47.1
23:55 1019 30.09 848 25.04 21.3 70.3 44 8.6 47.4
24:00 1019 30.09 848 25.04 21.2 70.2 43 8.3 47